Airport View

Enter ICAO identifier to see the current METAR for that AWOS.

KFNL for example

K88M 250900Z AUTO 12005KT 10SM 14/06 A3002

25 Jul 2014 09:03

Frequency: 118.375

Phone: 406-889-3366

Other Area AWOS: KS59 - CWRT - CWGW - CWSW

TAF CYXC 250638Z 2507/2519 20008KT P6SM BKN060 TEMPO 2507/2510 P6SM -SHRA RMK NXT FCST BY 251300Z